createdAt,value
2022-08-27T00:01:25.521Z,54.86
2022-08-27T00:03:55.166Z,54.69
2022-08-27T00:06:22.443Z,54.94
2022-08-27T00:08:50.218Z,55.05
2022-08-27T00:11:18.290Z,55.35
2022-08-27T00:13:45.423Z,55.24
2022-08-27T00:16:14.890Z,55.34
2022-08-27T00:18:44.146Z,55.03
2022-08-27T00:21:15.414Z,55.03
2022-08-27T00:23:42.053Z,55.15
2022-08-27T00:26:08.730Z,55.47
2022-08-27T00:28:35.438Z,55.24
2022-08-27T00:31:02.410Z,55.23
2022-08-27T00:33:30.601Z,55.31
2022-08-27T00:35:57.582Z,55.12
2022-08-27T00:38:24.134Z,55.38
2022-08-27T00:40:51.507Z,55.34
2022-08-27T00:43:34.442Z,54.17
2022-08-27T00:46:11.210Z,54.38
2022-08-27T00:48:37.643Z,52.02
2022-08-27T00:51:05.846Z,55.01
2022-08-27T00:53:33.539Z,54.92
2022-08-27T00:56:22.300Z,53.57
2022-08-27T00:58:52.061Z,54.78
2022-08-27T01:01:23.781Z,54.37
2022-08-27T01:03:54.295Z,54.49
2022-08-27T01:06:23.389Z,54.90
2022-08-27T01:08:57.879Z,54.18
2022-08-27T01:11:25.348Z,54.55
2022-08-27T01:14:00.210Z,54.82
2022-08-27T01:16:33.712Z,53.84
2022-08-27T01:19:00.973Z,54.56
2022-08-27T01:22:04.744Z,52.95
2022-08-27T01:24:36.074Z,53.85
2022-08-27T01:27:04.876Z,53.90
2022-08-27T01:29:35.103Z,53.67
2022-08-27T01:32:11.460Z,53.51
2022-08-27T01:34:38.549Z,53.68
2022-08-27T01:37:06.686Z,53.86
2022-08-27T01:39:39.624Z,53.31
2022-08-27T01:42:10.644Z,53.39
2022-08-27T01:44:47.849Z,53.25
2022-08-27T01:47:15.380Z,53.59
2022-08-27T01:49:41.924Z,53.33
2022-08-27T01:52:09.004Z,53.51
2022-08-27T01:54:35.563Z,52.99
2022-08-27T01:57:02.200Z,53.30
2022-08-27T01:59:39.372Z,52.89
2022-08-27T02:02:08.735Z,53.13
2022-08-27T02:04:36.353Z,53.21
2022-08-27T02:07:03.543Z,53.31
2022-08-27T02:09:30.200Z,53.55
2022-08-27T02:11:57.049Z,53.63
2022-08-27T02:14:23.661Z,53.25
2022-08-27T02:16:52.727Z,53.63
2022-08-27T02:19:20.224Z,54.14
2022-08-27T02:21:47.099Z,54.05
2022-08-27T02:24:14.022Z,53.82
2022-08-27T02:26:40.564Z,53.85
2022-08-27T02:29:07.729Z,53.79
2022-08-27T02:31:34.413Z,53.35
2022-08-27T02:34:01.615Z,53.61
2022-08-27T02:36:28.389Z,53.53
2022-08-27T02:38:55.509Z,53.70
2022-08-27T02:41:22.857Z,53.63
2022-08-27T02:43:49.411Z,53.58
2022-08-27T02:46:16.976Z,53.06
2022-08-27T02:48:44.413Z,53.12
2022-08-27T02:51:10.982Z,53.35
2022-08-27T02:53:38.100Z,53.53
2022-08-27T02:56:06.424Z,52.83
2022-08-27T02:58:33.752Z,53.37
2022-08-27T03:01:04.746Z,52.98
2022-08-27T03:03:31.597Z,53.46
2022-08-27T03:05:59.136Z,53.42
2022-08-27T03:08:27.015Z,53.69
2022-08-27T03:10:56.770Z,53.67
2022-08-27T03:13:25.920Z,53.69
2022-08-27T03:15:53.616Z,53.79
2022-08-27T03:18:21.860Z,53.85
2022-08-27T03:20:51.628Z,53.27
2022-08-27T03:23:22.517Z,53.33
2022-08-27T03:25:52.634Z,53.78
2022-08-27T03:28:25.932Z,53.21
2022-08-27T03:30:58.386Z,53.51
2022-08-27T03:33:26.266Z,53.88
2022-08-27T03:35:53.074Z,53.68
2022-08-27T03:38:20.098Z,53.67
2022-08-27T03:40:47.134Z,53.41
2022-08-27T03:43:15.084Z,53.40
2022-08-27T03:46:00.413Z,53.76
2022-08-27T03:48:29.348Z,53.93
2022-08-27T03:50:55.965Z,53.91
2022-08-27T03:53:22.555Z,53.90
2022-08-27T03:55:49.651Z,53.89
2022-08-27T03:58:16.941Z,54.49
2022-08-27T04:00:43.967Z,54.37
2022-08-27T04:03:13.336Z,53.71
2022-08-27T04:05:40.278Z,53.97
2022-08-27T04:08:07.038Z,53.88
2022-08-27T04:10:34.960Z,53.83
2022-08-27T04:13:01.626Z,54.02
2022-08-27T04:15:28.131Z,54.51
2022-08-27T04:17:54.628Z,54.19
2022-08-27T04:20:36.599Z,54.08
2022-08-27T04:23:04.081Z,53.92
2022-08-27T04:25:31.295Z,53.87
2022-08-27T04:27:58.725Z,54.18
2022-08-27T04:30:25.307Z,54.06
2022-08-27T04:32:51.818Z,53.63
2022-08-27T04:35:18.440Z,53.77
2022-08-27T04:37:45.017Z,53.45
2022-08-27T04:40:11.736Z,53.54
2022-08-27T04:42:38.559Z,53.27
2022-08-27T04:45:05.745Z,52.87
2022-08-27T04:47:33.242Z,53.23
2022-08-27T04:49:59.766Z,53.10
2022-08-27T04:52:26.825Z,53.02
2022-08-27T04:54:53.358Z,53.06
2022-08-27T04:57:20.701Z,53.17
2022-08-27T04:59:47.277Z,53.11
2022-08-27T05:02:14.070Z,52.85
2022-08-27T05:04:41.090Z,52.86
2022-08-27T05:07:09.406Z,53.35
2022-08-27T05:09:36.252Z,52.83
2022-08-27T05:12:03.424Z,52.77
2022-08-27T05:14:30.469Z,53.47
2022-08-27T05:16:59.148Z,52.94
2022-08-27T05:19:26.254Z,53.12
2022-08-27T05:21:53.910Z,53.40
2022-08-27T05:24:21.723Z,53.40
2022-08-27T05:26:49.026Z,53.46
2022-08-27T05:29:16.145Z,52.72
2022-08-27T05:31:42.921Z,52.96
2022-08-27T05:34:15.309Z,53.23
2022-08-27T05:36:49.315Z,53.08
2022-08-27T05:39:17.011Z,53.15
2022-08-27T05:41:43.860Z,53.90
2022-08-27T05:44:37.293Z,53.75
2022-08-27T05:46:57.460Z,53.43
2022-08-27T05:49:23.982Z,53.74
2022-08-27T05:51:50.561Z,54.04
2022-08-27T05:54:19.885Z,54.16
2022-08-27T05:56:49.910Z,54.12
2022-08-27T05:59:35.313Z,54.02
2022-08-27T06:02:04.124Z,53.81
2022-08-27T06:04:30.598Z,53.71
2022-08-27T06:06:57.453Z,53.56
2022-08-27T06:09:26.881Z,53.59
2022-08-27T06:11:54.521Z,54.05
2022-08-27T06:14:21.312Z,54.40
2022-08-27T06:16:48.736Z,54.61
2022-08-27T06:19:15.427Z,54.03
2022-08-27T06:21:42.517Z,54.08
2022-08-27T06:24:12.279Z,54.39
2022-08-27T06:26:40.619Z,54.44
2022-08-27T06:29:08.622Z,54.47
2022-08-27T06:31:35.693Z,54.22
2022-08-27T06:34:07.215Z,54.30
2022-08-27T06:36:37.771Z,54.35
2022-08-27T06:39:05.655Z,54.37
2022-08-27T06:41:33.691Z,54.44
2022-08-27T06:44:00.178Z,54.70
2022-08-27T06:46:29.481Z,54.92
2022-08-27T06:48:58.985Z,54.68
2022-08-27T06:51:29.808Z,54.92
2022-08-27T06:54:00.934Z,54.87
2022-08-27T06:56:28.518Z,54.41
2022-08-27T06:58:57.728Z,54.86
2022-08-27T07:01:30.167Z,55.02
2022-08-27T07:03:59.839Z,55.62
2022-08-27T07:06:29.354Z,54.90
2022-08-27T07:08:57.165Z,56.02
2022-08-27T07:11:24.946Z,54.66
2022-08-27T07:13:52.566Z,55.27
2022-08-27T07:16:23.281Z,54.73
2022-08-27T07:18:52.006Z,54.89
2022-08-27T07:21:22.536Z,54.74
2022-08-27T07:23:51.609Z,54.63
2022-08-27T07:26:19.462Z,54.66
2022-08-27T07:28:46.895Z,54.50
2022-08-27T07:31:17.179Z,54.95
2022-08-27T07:33:50.783Z,55.33
2022-08-27T07:36:20.062Z,55.34
2022-08-27T07:38:56.579Z,55.38
2022-08-27T07:41:31.100Z,55.20
2022-08-27T07:44:20.171Z,54.88
2022-08-27T07:46:49.065Z,55.58
2022-08-27T07:49:19.540Z,55.17
2022-08-27T07:51:46.148Z,55.99
2022-08-27T07:54:12.838Z,55.75
2022-08-27T07:56:39.392Z,55.66
2022-08-27T07:59:06.064Z,55.61
2022-08-27T08:01:32.932Z,56.03
2022-08-27T08:03:59.544Z,56.64
2022-08-27T08:06:26.176Z,55.82
2022-08-27T08:08:52.785Z,55.95
2022-08-27T08:11:20.408Z,55.63
